Time;durP1;ratioP1;P1;durP2;ratioP2;P2;SDS_P1;SDS_P2;PMS_P1;PMS_P2;Temp;Humidity;BMP_temperature;BMP_pressure;BME280_temperature;BME280_humidity;BME280_pressure;Samples;Min_cycle;Max_cycle;Signal;HPM_P1;HPM_P2
2022/10/07 00:01:04;;;;;;;8.80;4.60;;;15.70;99.90;;;;;;5032163;28;20938;-65
2022/10/07 00:03:31;;;;;;;5.97;4.07;;;15.60;99.90;;;;;;5031970;28;20407;-66
2022/10/07 00:06:07;;;;;;;7.40;3.77;;;15.60;99.90;;;;;;5031778;28;20423;-66
2022/10/07 00:08:37;;;;;;;4.93;3.87;;;15.70;99.90;;;;;;5032066;28;20406;-66
2022/10/07 00:11:12;;;;;;;5.93;3.63;;;15.60;30.50;;;;;;5030537;28;20794;-66
2022/10/07 00:13:39;;;;;;;4.33;3.53;;;15.60;31.90;;;;;;5031526;28;20464;-65
2022/10/07 00:16:11;;;;;;;4.30;3.40;;;15.60;99.90;;;;;;5031109;28;20449;-66
2022/10/07 00:18:38;;;;;;;5.50;3.60;;;15.60;99.90;;;;;;5031582;28;20403;-67
2022/10/07 00:21:06;;;;;;;12.77;3.97;;;15.60;32.30;;;;;;5030672;28;20453;-66
2022/10/07 00:23:32;;;;;;;3.80;3.40;;;15.60;99.90;;;;;;5031358;28;20414;-67
2022/10/07 00:26:02;;;;;;;4.70;3.40;;;15.60;99.90;;;;;;5031027;28;20404;-65
2022/10/07 00:28:28;;;;;;;5.93;3.47;;;15.60;99.90;;;;;;5031691;28;20465;-66
2022/10/07 00:31:01;;;;;;;5.10;3.63;;;15.50;99.90;;;;;;5030410;28;20422;-65
2022/10/07 00:33:32;;;;;;;9.23;4.40;;;15.50;99.90;;;;;;5031262;28;20483;-66
2022/10/07 00:35:58;;;;;;;7.93;4.00;;;15.60;99.90;;;;;;5030991;28;20440;-65
2022/10/07 00:38:24;;;;;;;6.10;3.93;;;15.60;99.90;;;;;;5031653;28;20425;-66
2022/10/07 00:40:49;;;;;;;5.33;3.87;;;15.60;99.90;;;;;;5029665;28;20229;-66
2022/10/07 00:43:23;;;;;;;4.23;3.60;;;15.40;1.00;;;;;;5030773;28;20178;-67
2022/10/07 00:45:50;;;;;;;5.40;3.80;;;15.40;1.00;;;;;;5029726;28;20691;-68
2022/10/07 00:48:21;;;;;;;5.13;3.67;;;15.50;1.00;;;;;;5031130;28;20411;-67
2022/10/07 00:50:51;;;;;;;7.57;3.37;;;15.50;99.90;;;;;;5029677;28;20981;-68
2022/10/07 00:53:17;;;;;;;7.70;3.60;;;15.60;99.90;;;;;;5031094;28;20449;-65
2022/10/07 00:55:43;;;;;;;4.43;3.80;;;15.60;99.90;;;;;;5030038;28;20917;-65
2022/10/07 00:58:09;;;;;;;5.60;4.43;;;15.60;99.90;;;;;;5030990;28;20463;-67
2022/10/07 01:00:37;;;;;;;4.90;3.77;;;15.40;99.90;;;;;;5029419;28;20422;-66
2022/10/07 01:03:04;;;;;;;5.83;3.13;;;15.40;99.90;;;;;;5031015;28;20422;-67
2022/10/07 01:05:29;;;;;;;6.40;3.90;;;15.40;1.00;;;;;;5030419;28;20414;-69
2022/10/07 01:07:56;;;;;;;4.10;3.70;;;15.50;99.90;;;;;;5030540;28;20413;-67
2022/10/07 01:10:23;;;;;;;5.13;3.33;;;15.60;99.90;;;;;;5030413;28;20212;-66
2022/10/07 01:13:08;;;;;;;10.17;4.17;;;15.60;1.00;;;;;;5032332;28;20450;-65
2022/10/07 01:15:50;;;;;;;5.33;3.30;;;15.60;68.00;;;;;;5031033;28;20490;-66
2022/10/07 01:18:30;;;;;;;6.47;3.23;;;15.60;99.90;;;;;;5031717;28;20398;-65
2022/10/07 01:21:04;;;;;;;3.53;2.80;;;15.60;99.90;;;;;;5029558;28;20426;-66
2022/10/07 01:23:48;;;;;;;3.63;3.10;;;15.60;99.90;;;;;;5030112;28;20406;-68
2022/10/07 01:26:13;;;;;;;6.50;3.23;;;15.60;97.50;;;;;;5030209;28;20398;-64
2022/10/07 01:28:40;;;;;;;6.40;3.70;;;15.60;99.90;;;;;;5030341;28;20444;-64
2022/10/07 01:31:11;;;;;;;4.20;3.20;;;15.60;99.90;;;;;;5011476;28;20576;-64
2022/10/07 01:33:39;;;;;;;4.03;3.63;;;15.60;99.40;;;;;;5030391;28;20522;-67
2022/10/07 01:36:11;;;;;;;6.50;3.67;;;15.60;99.90;;;;;;5030185;28;20403;-67
2022/10/07 01:38:43;;;;;;;3.83;3.10;;;15.50;99.90;;;;;;5030128;28;20394;-65
2022/10/07 01:41:16;;;;;;;7.93;3.83;;;15.50;99.90;;;;;;5029601;28;20929;-66
2022/10/07 01:43:44;;;;;;;5.00;3.80;;;15.50;99.90;;;;;;5030058;28;20537;-66
2022/10/07 01:46:17;;;;;;;5.60;3.60;;;15.50;99.90;;;;;;5028958;28;20490;-66
2022/10/07 01:48:45;;;;;;;11.00;4.53;;;15.50;99.90;;;;;;5029970;28;20418;-66
2022/10/07 01:51:11;;;;;;;13.10;4.53;;;15.50;1.00;;;;;;5029212;28;20453;-67
2022/10/07 01:54:04;;;;;;;7.23;3.90;;;15.50;1.00;;;;;;5029888;28;20450;-67
2022/10/07 01:56:33;;;;;;;15.03;5.33;;;15.50;1.00;;;;;;5030183;28;20410;-65
2022/10/07 01:59:25;;;;;;;10.57;5.60;;;15.60;1.00;;;;;;5029281;28;20402;-65
2022/10/07 02:01:57;;;;;;;8.47;5.03;;;15.50;1.00;;;;;;5029042;28;20398;-67
2022/10/07 02:04:57;;;;;;;9.00;4.23;;;15.50;1.00;;;;;;5029341;28;20402;-65
2022/10/07 02:07:50;;;;;;;4.30;3.90;;;15.50;1.00;;;;;;5029398;28;20501;-67
2022/10/07 02:10:27;;;;;;;9.30;4.67;;;15.50;1.00;;;;;;5028762;28;20422;-67
2022/10/07 02:13:17;;;;;;;5.17;4.10;;;15.50;1.00;;;;;;5029434;28;20796;-66
2022/10/07 02:16:17;;;;;;;6.60;4.30;;;15.40;99.90;;;;;;5028889;28;20386;-66
2022/10/07 02:18:48;;;;;;;16.40;4.37;;;15.40;99.90;;;;;;4990990;28;20407;-66
2022/10/07 02:21:17;;;;;;;5.13;3.80;;;15.50;63.30;;;;;;5011024;28;20782;-67
2022/10/07 02:23:45;;;;;;;4.50;4.10;;;15.50;7.30;;;;;;5029565;28;20421;-67
2022/10/07 02:26:14;;;;;;;6.40;3.70;;;15.50;99.90;;;;;;5028542;28;20418;-65
2022/10/07 02:28:42;;;;;;;10.80;5.10;;;15.50;99.90;;;;;;5029480;28;21045;-66
2022/10/07 02:31:09;;;;;;;7.53;3.93;;;15.50;99.90;;;;;;5028319;28;20918;-66
2022/10/07 02:33:37;;;;;;;5.60;3.80;;;15.50;99.90;;;;;;5029001;28;20814;-66
2022/10/07 02:36:09;;;;;;;4.90;3.70;;;15.50;99.90;;;;;;5029386;28;21155;-66
2022/10/07 02:38:37;;;;;;;5.80;3.73;;;15.50;99.90;;;;;;5029428;28;20884;-65
2022/10/07 02:41:12;;;;;;;4.83;3.90;;;15.50;99.90;;;;;;5027775;28;20873;-65
2022/10/07 02:43:55;;;;;;;9.27;3.93;;;15.40;1.00;;;;;;5029144;28;20405;-66
2022/10/07 02:46:30;;;;;;;10.30;3.80;;;15.40;1.00;;;;;;5027791;28;20428;-65
2022/10/07 02:48:59;;;;;;;8.03;3.90;;;15.50;99.90;;;;;;5028739;28;20406;-65
2022/10/07 02:51:32;;;;;;;7.77;3.77;;;15.50;99.90;;;;;;5028258;28;20453;-68
2022/10/07 02:54:01;;;;;;;7.17;4.23;;;15.40;99.90;;;;;;5030200;28;20473;-68
2022/10/07 02:56:29;;;;;;;10.10;4.60;;;15.40;37.70;;;;;;5030997;28;20410;-67
2022/10/07 02:58:57;;;;;;;6.50;4.73;;;15.50;77.70;;;;;;5030593;28;20410;-68
2022/10/07 03:01:28;;;;;;;5.80;4.53;;;15.40;1.00;;;;;;5031951;28;20426;-69
2022/10/07 03:03:56;;;;;;;4.77;4.30;;;15.40;99.90;;;;;;5032488;28;20438;-68
2022/10/07 03:06:23;;;;;;;5.67;4.67;;;15.30;99.90;;;;;;5033922;28;20437;-66
2022/10/07 03:08:49;;;;;;;5.07;4.00;;;15.30;99.90;;;;;;5034788;28;20406;-67
2022/10/07 03:11:15;;;;;;;4.90;3.97;;;15.20;1.00;;;;;;5034261;28;20972;-68
2022/10/07 03:13:41;;;;;;;4.83;4.00;;;15.00;99.90;;;;;;5036318;28;20458;-67
2022/10/07 03:16:06;;;;;;;6.10;4.67;;;14.90;1.00;;;;;;5035424;28;20168;-68
2022/10/07 03:18:33;;;;;;;5.30;4.30;;;15.00;1.00;;;;;;5036045;28;20205;-68
2022/10/07 03:20:59;;;;;;;5.60;4.53;;;15.00;1.00;;;;;;5034716;28;20651;-67
2022/10/07 03:23:27;;;;;;;5.97;4.47;;;14.90;1.00;;;;;;5035046;28;21133;-64
2022/10/07 03:25:56;;;;;;;7.33;4.50;;;14.90;1.00;;;;;;5034260;28;20516;-69
2022/10/07 03:28:24;;;;;;;6.40;4.40;;;14.90;1.00;;;;;;5033196;28;20724;-66
2022/10/07 03:30:50;;;;;;;10.13;4.17;;;14.90;99.90;;;;;;5030894;28;20440;-65
2022/10/07 03:33:17;;;;;;;4.50;3.77;;;15.10;52.70;;;;;;5032308;28;20453;-68
2022/10/07 03:35:43;;;;;;;4.20;3.80;;;15.10;1.00;;;;;;5031844;28;20434;-68
2022/10/07 03:38:09;;;;;;;5.50;4.30;;;15.20;1.00;;;;;;5032073;28;20473;-67
2022/10/07 03:40:38;;;;;;;5.57;4.43;;;15.20;1.00;;;;;;5031273;28;20183;-69
2022/10/07 03:43:06;;;;;;;10.97;4.93;;;15.30;1.00;;;;;;5032590;28;20259;-67
2022/10/07 03:45:31;;;;;;;4.40;4.00;;;15.30;1.00;;;;;;5030193;28;20449;-68
2022/10/07 03:47:58;;;;;;;5.03;3.77;;;15.30;1.00;;;;;;5031902;28;20914;-68
2022/10/07 03:50:25;;;;;;;5.40;4.40;;;15.20;1.00;;;;;;5030544;28;20253;-67
2022/10/07 03:52:51;;;;;;;8.67;4.60;;;15.30;1.00;;;;;;5031420;28;20960;-67
2022/10/07 03:55:16;;;;;;;7.60;4.47;;;15.10;1.00;;;;;;5031333;28;20398;-67
2022/10/07 03:57:54;;;;;;;6.33;4.43;;;15.20;1.00;;;;;;5031737;28;20453;-67
2022/10/07 04:00:22;;;;;;;10.20;4.90;;;15.20;1.00;;;;;;5030558;28;20234;-67
2022/10/07 04:02:49;;;;;;;8.10;4.70;;;15.20;1.00;;;;;;5030847;28;20513;-68
2022/10/07 04:05:16;;;;;;;10.50;5.07;;;15.30;1.00;;;;;;5031362;28;20421;-67
2022/10/07 04:07:43;;;;;;;10.17;5.03;;;15.30;1.00;;;;;;5030634;28;20422;-69
2022/10/07 04:10:10;;;;;;;9.03;4.80;;;15.30;1.00;;;;;;5029273;28;20499;-66
2022/10/07 04:12:36;;;;;;;28.60;6.20;;;15.20;1.00;;;;;;5029959;28;20547;-65
2022/10/07 04:15:02;;;;;;;10.83;5.10;;;15.20;1.00;;;;;;5020695;28;20414;-66
2022/10/07 04:17:28;;;;;;;19.63;6.30;;;15.20;1.00;;;;;;5027740;28;20188;-66
2022/10/07 04:19:53;;;;;;;5.80;4.20;;;15.30;1.00;;;;;;5029164;28;20438;-67
2022/10/07 04:22:19;;;;;;;5.50;4.50;;;15.20;1.00;;;;;;5029527;28;20636;-64
2022/10/07 04:25:32;;;;;;;9.03;4.50;;;15.20;92.80;;;;;;5028554;28;20509;-68
2022/10/07 04:27:30;;;;;;;8.03;5.00;;;15.20;60.70;;;;;;5030641;28;20175;-67
2022/10/07 04:29:55;;;;;;;5.03;4.63;;;15.20;45.00;;;;;;5029465;28;20434;-67
2022/10/07 04:32:21;;;;;;;13.73;5.23;;;15.20;31.90;;;;;;5029561;28;20203;-67
2022/10/07 04:34:51;;;;;;;15.17;5.50;;;15.10;99.90;;;;;;5029894;28;20170;-67
2022/10/07 04:37:17;;;;;;;9.90;6.00;;;15.20;99.90;;;;;;5030377;28;20734;-70
2022/10/07 04:39:43;;;;;;;7.50;4.47;;;15.20;99.90;;;;;;5029349;28;20453;-68
2022/10/07 04:43:17;;;;;;;16.13;5.70;;;15.20;99.90;;;;;;5029620;28;20418;-67
2022/10/07 04:44:54;;;;;;;26.10;5.90;;;15.20;99.90;;;;;;5029930;28;20230;-68
2022/10/07 04:47:19;;;;;;;15.73;4.80;;;15.20;99.90;;;;;;5030492;28;20463;-68
2022/10/07 04:49:45;;;;;;;9.03;5.53;;;15.30;99.90;;;;;;5054947;22;20514;-67
2022/10/07 04:52:10;;;;;;;7.87;4.70;;;15.20;94.10;;;;;;5034413;28;20183;-67
2022/10/07 04:54:38;;;;;;;10.80;4.57;;;15.20;94.80;;;;;;5032111;28;20175;-67
2022/10/07 04:57:04;;;;;;;7.20;4.53;;;15.20;99.90;;;;;;5033432;28;20292;-67
2022/10/07 04:59:30;;;;;;;4.60;4.10;;;15.20;99.90;;;;;;5036663;28;20523;-67
2022/10/07 05:01:56;;;;;;;6.10;4.80;;;15.20;99.90;;;;;;5025036;28;20270;-67
2022/10/07 05:04:21;;;;;;;5.50;4.07;;;15.10;99.90;;;;;;5021169;28;20411;-67
2022/10/07 05:06:47;;;;;;;10.00;4.70;;;15.00;1.00;;;;;;5019414;28;20492;-67
2022/10/07 05:09:13;;;;;;;5.10;4.40;;;15.00;1.00;;;;;;5027428;28;20191;-67
2022/10/07 05:11:38;;;;;;;10.60;5.10;;;15.00;1.00;;;;;;5024653;28;20211;-68
2022/10/07 05:14:04;;;;;;;9.03;4.00;;;15.00;1.00;;;;;;5023166;28;20206;-68
2022/10/07 05:16:30;;;;;;;7.93;5.30;;;15.00;1.00;;;;;;5023918;28;20246;-67
2022/10/07 05:18:56;;;;;;;10.37;5.37;;;15.00;1.00;;;;;;5018538;28;20483;-68
2022/10/07 05:21:21;;;;;;;6.33;5.73;;;14.90;99.90;;;;;;5021734;28;20200;-68
2022/10/07 05:23:47;;;;;;;11.10;5.97;;;14.90;99.90;;;;;;4997437;28;20299;-68
2022/10/07 05:26:14;;;;;;;28.13;6.70;;;14.90;1.00;;;;;;5018205;28;20633;-69
2022/10/07 05:28:40;;;;;;;39.97;8.10;;;14.90;1.00;;;;;;5022086;28;20176;-67
2022/10/07 05:31:07;;;;;;;16.77;6.27;;;15.00;1.00;;;;;;5025106;28;20509;-66
2022/10/07 05:33:33;;;;;;;11.73;5.33;;;15.00;1.00;;;;;;5046764;28;20526;-69
2022/10/07 05:35:59;;;;;;;10.60;6.17;;;15.00;1.00;;;;;;5029704;28;20898;-67
2022/10/07 05:38:25;;;;;;;30.03;7.17;;;15.00;99.90;;;;;;5022032;28;20230;-67
2022/10/07 05:40:57;;;;;;;9.83;5.67;;;15.00;99.90;;;;;;5021570;28;20423;-68
2022/10/07 05:43:24;;;;;;;29.93;7.00;;;15.10;99.90;;;;;;5007439;28;20719;-66
2022/10/07 05:45:59;;;;;;;13.30;5.53;;;15.10;99.90;;;;;;5006472;28;20473;-66
2022/10/07 05:48:24;;;;;;;11.60;6.10;;;15.00;99.90;;;;;;5007292;28;20461;-68
2022/10/07 05:50:50;;;;;;;17.00;7.00;;;14.80;1.00;;;;;;5006662;28;20451;-66
2022/10/07 05:53:16;;;;;;;9.40;5.70;;;15.00;1.00;;;;;;5007481;28;20231;-66
2022/10/07 05:55:41;;;;;;;13.17;6.60;;;14.80;1.00;;;;;;5012672;28;20186;-68
2022/10/07 05:58:07;;;;;;;9.40;6.03;;;14.80;1.00;;;;;;5036757;28;20183;-67
2022/10/07 06:00:34;;;;;;;10.87;6.80;;;14.70;1.00;;;;;;5029466;28;20199;-66
2022/10/07 06:03:01;;;;;;;6.60;6.00;;;14.60;1.00;;;;;;5033093;28;20179;-66
2022/10/07 06:05:31;;;;;;;23.70;7.70;;;14.60;13.40;;;;;;5038165;28;20943;-66
2022/10/07 06:07:56;;;;;;;38.63;8.07;;;14.60;1.00;;;;;;5041405;28;20470;-66
2022/10/07 06:13:08;;;;;;;22.33;6.97;;;14.70;1.00;;;;;;5050204;28;20215;-68
2022/10/07 06:15:34;;;;;;;12.90;6.10;;;14.70;99.90;;;;;;5040219;28;20445;-67
2022/10/07 06:18:00;;;;;;;15.70;7.80;;;14.80;99.90;;;;;;5045119;28;20788;-67
2022/10/07 06:20:26;;;;;;;12.97;6.80;;;14.80;99.90;;;;;;5045339;28;20471;-66
2022/10/07 06:22:53;;;;;;;31.03;8.20;;;14.90;1.00;;;;;;5046371;28;20183;-66
2022/10/07 06:25:18;;;;;;;73.93;15.37;;;15.00;1.00;;;;;;5027485;28;20261;-66
2022/10/07 06:27:44;;;;;;;11.83;6.97;;;15.00;1.00;;;;;;5046299;28;20850;-65
2022/10/07 06:30:11;;;;;;;13.17;6.80;;;15.10;99.90;;;;;;5031654;28;20215;-66
2022/10/07 06:32:37;;;;;;;7.57;6.70;;;15.90;99.90;;;;;;5044045;28;20222;-67
2022/10/07 06:35:04;;;;;;;12.30;6.60;;;16.70;99.90;;;;;;5039608;28;20433;-66
2022/10/07 06:37:31;;;;;;;12.27;6.07;;;18.00;99.90;;;;;;5036731;28;20449;-67
2022/10/07 06:39:56;;;;;;;11.30;5.80;;;19.20;1.00;;;;;;5038298;28;21187;-67
2022/10/07 06:42:22;;;;;;;15.93;6.07;;;20.00;1.00;;;;;;5044106;28;20638;-67
2022/10/07 06:44:48;;;;;;;17.03;5.80;;;20.40;1.00;;;;;;5043976;28;20249;-67
2022/10/07 06:47:13;;;;;;;13.63;6.10;;;20.10;99.90;;;;;;5036588;28;20179;-67
2022/10/07 06:49:39;;;;;;;10.60;5.70;;;19.50;1.00;;;;;;5038251;28;20180;-67
2022/10/07 06:52:04;;;;;;;7.90;6.07;;;19.30;1.00;;;;;;5038261;28;20172;-66
2022/10/07 06:54:30;;;;;;;14.97;6.73;;;19.50;1.00;;;;;;5038640;28;20230;-66
2022/10/07 06:56:56;;;;;;;13.03;7.00;;;20.40;99.90;;;;;;5039691;28;20182;-67
2022/10/07 06:59:21;;;;;;;7.73;5.93;;;21.60;99.90;;;;;;5043120;28;20167;-67
2022/10/07 07:01:47;;;;;;;10.53;6.73;;;22.30;99.90;;;;;;5032641;28;20175;-67
2022/10/07 07:04:13;;;;;;;10.07;5.57;;;23.30;99.90;;;;;;5022670;28;21258;-67
2022/10/07 07:06:39;;;;;;;9.17;6.53;;;24.10;99.90;;;;;;5039384;28;20338;-67
2022/10/07 07:09:04;;;;;;;10.20;5.50;;;24.00;99.90;;;;;;5034912;28;20239;-68
2022/10/07 07:11:37;;;;;;;12.17;6.63;;;23.90;99.90;;;;;;5036545;28;20235;-67
2022/10/07 07:14:04;;;;;;;12.73;7.07;;;23.80;99.90;;;;;;5044762;28;20249;-67
2022/10/07 07:16:30;;;;;;;14.43;7.20;;;23.90;99.90;;;;;;5039315;28;20433;-67
2022/10/07 07:19:00;;;;;;;17.60;7.80;;;24.00;99.90;;;;;;5044039;28;20452;-67
2022/10/07 07:21:29;;;;;;;8.80;7.20;;;24.00;99.90;;;;;;5038361;28;20446;-67
2022/10/07 07:23:56;;;;;;;10.57;6.30;;;23.50;99.90;;;;;;5039926;28;20528;-67
2022/10/07 07:26:22;;;;;;;11.27;7.33;;;22.30;99.90;;;;;;5034402;28;20406;-67
2022/10/07 07:28:59;;;;;;;12.53;8.03;;;22.30;99.90;;;;;;5034906;28;20430;-67
2022/10/07 07:31:27;;;;;;;11.47;8.23;;;22.50;99.90;;;;;;5028351;28;20790;-68
2022/10/07 07:33:55;;;;;;;21.43;11.87;;;22.50;99.90;;;;;;5043469;28;20457;-67
2022/10/07 07:36:23;;;;;;;15.13;13.63;;;22.50;99.90;;;;;;5016232;28;20426;-65
2022/10/07 07:38:58;;;;;;;12.27;9.30;;;21.70;99.90;;;;;;5029508;28;20770;-66
2022/10/07 07:41:27;;;;;;;37.13;12.23;;;21.10;99.90;;;;;;5029556;28;20985;-66
2022/10/07 07:43:55;;;;;;;50.13;14.67;;;20.10;99.90;;;;;;5038043;28;20430;-67
2022/10/07 07:46:22;;;;;;;30.53;12.57;;;20.20;99.90;;;;;;5037034;28;20457;-67
2022/10/07 07:48:50;;;;;;;51.63;13.13;;;20.70;99.90;;;;;;5049054;28;20422;-66
2022/10/07 07:51:17;;;;;;;58.63;16.53;;;20.90;99.90;;;;;;5057300;28;20480;-67
2022/10/07 07:53:44;;;;;;;48.43;14.50;;;21.00;99.90;;;;;;5049676;28;20461;-68
2022/10/07 07:56:11;;;;;;;44.97;11.63;;;21.20;99.90;;;;;;5048351;28;20414;-69
2022/10/07 07:58:36;;;;;;;16.10;8.33;;;21.00;99.90;;;;;;5053316;28;20747;-69
2022/10/07 08:01:08;;;;;;;13.60;8.43;;;20.60;99.90;;;;;;5039046;28;20456;-68
2022/10/07 08:03:37;;;;;;;10.00;8.30;;;20.60;99.90;;;;;;5045066;28;20175;-68
2022/10/07 08:06:05;;;;;;;20.87;7.43;;;21.20;99.90;;;;;;5047052;28;20903;-68
2022/10/07 08:08:31;;;;;;;14.13;8.10;;;21.50;99.90;;;;;;5053280;28;20408;-68
2022/10/07 08:11:06;;;;;;;14.10;7.50;;;21.80;99.90;;;;;;5051859;28;20488;-68
2022/10/07 08:13:31;;;;;;;13.03;8.20;;;22.50;99.90;;;;;;5045574;28;20456;-68
2022/10/07 08:15:57;;;;;;;8.70;7.30;;;22.80;99.90;;;;;;5039321;28;20529;-69
2022/10/07 08:18:23;;;;;;;11.47;7.37;;;22.50;99.90;;;;;;5044349;28;20225;-67
2022/10/07 08:21:03;;;;;;;9.97;7.87;;;22.60;99.90;;;;;;5051005;28;20183;-67
2022/10/07 08:23:29;;;;;;;12.10;9.00;;;22.40;99.90;;;;;;5047278;28;20186;-67
2022/10/07 08:25:56;;;;;;;14.10;8.50;;;21.90;99.90;;;;;;5042157;28;20451;-67
2022/10/07 08:28:23;;;;;;;16.90;10.20;;;21.70;99.90;;;;;;5041712;28;20489;-68
2022/10/07 08:30:49;;;;;;;26.67;11.70;;;21.60;99.90;;;;;;5045284;28;21071;-67
2022/10/07 08:33:17;;;;;;;26.90;9.83;;;21.10;99.90;;;;;;5045106;28;20509;-67
2022/10/07 08:35:43;;;;;;;36.70;11.67;;;21.50;99.90;;;;;;5038810;28;20411;-67
2022/10/07 08:38:10;;;;;;;36.30;12.70;;;22.00;99.90;;;;;;5031460;28;20452;-67
2022/10/07 08:40:36;;;;;;;17.20;7.63;;;22.20;99.90;;;;;;5028259;28;20195;-67
2022/10/07 08:43:02;;;;;;;16.30;10.70;;;22.20;99.90;;;;;;5039097;28;20571;-67
2022/10/07 08:45:32;;;;;;;12.83;10.80;;;22.10;99.90;;;;;;5045538;28;20262;-67
2022/10/07 08:48:10;;;;;;;13.97;11.87;;;21.60;99.90;;;;;;5013053;28;20467;-68
2022/10/07 08:50:41;;;;;;;13.97;11.37;;;21.10;99.90;;;;;;5029778;28;20457;-67
2022/10/07 08:53:21;;;;;;;14.50;10.77;;;20.00;99.90;;;;;;5030756;28;20474;-67
2022/10/07 08:55:54;;;;;;;17.33;11.13;;;19.30;99.90;;;;;;5040683;28;20425;-67
2022/10/07 08:58:56;;;;;;;12.93;10.73;;;19.40;99.90;;;;;;5034564;28;20875;-67
2022/10/07 09:01:25;;;;;;;19.03;11.67;;;19.00;99.90;;;;;;5050027;28;20473;-68
2022/10/07 09:04:27;;;;;;;19.10;11.70;;;19.20;99.90;;;;;;5032281;28;20449;-68
2022/10/07 09:07:01;;;;;;;22.63;14.40;;;19.40;99.90;;;;;;5014047;28;20438;-68
2022/10/07 09:09:45;;;;;;;20.43;12.40;;;19.10;99.90;;;;;;5031427;28;20482;-68
2022/10/07 09:12:29;;;;;;;22.23;13.47;;;18.70;99.90;;;;;;5029621;28;20437;-70
2022/10/07 09:14:58;;;;;;;19.43;13.67;;;18.70;99.90;;;;;;5038167;28;20525;-67
2022/10/07 09:17:39;;;;;;;17.20;10.90;;;19.00;99.90;;;;;;5050376;28;20803;-68
2022/10/07 09:20:16;;;;;;;22.03;13.23;;;19.30;99.90;;;;;;5050009;28;20425;-68
2022/10/07 09:22:49;;;;;;;18.37;13.87;;;19.80;99.90;;;;;;5037614;28;20437;-69
2022/10/07 09:25:22;;;;;;;29.17;14.10;;;20.00;99.90;;;;;;5040818;28;20390;-70
2022/10/07 09:27:49;;;;;;;15.67;10.90;;;19.90;99.90;;;;;;5050181;28;20762;-69
2022/10/07 09:30:16;;;;;;;20.53;13.80;;;19.70;99.90;;;;;;5031628;28;20468;-70
2022/10/07 09:32:47;;;;;;;19.63;12.60;;;19.40;99.90;;;;;;5041851;28;20458;-68
2022/10/07 09:35:16;;;;;;;15.67;14.00;;;19.70;99.90;;;;;;5033745;28;20434;-69
2022/10/07 09:38:00;;;;;;;17.20;12.63;;;19.80;99.90;;;;;;5023572;28;20449;-68
2022/10/07 09:43:31;;;;;;;78.17;17.43;;;19.30;99.90;;;;;;5026053;28;20444;-70
2022/10/07 09:45:58;;;;;;;36.93;13.97;;;19.50;99.90;;;;;;5040748;28;20534;-70
2022/10/07 09:48:32;;;;;;;59.27;16.53;;;19.80;99.90;;;;;;5044830;28;20434;-68
2022/10/07 09:51:18;;;;;;;17.10;13.30;;;20.00;99.90;;;;;;5037553;28;20542;-70
2022/10/07 09:54:05;;;;;;;36.43;14.23;;;20.00;99.90;;;;;;5018598;28;20472;-69
2022/10/07 09:56:35;;;;;;;20.40;11.70;;;20.00;99.90;;;;;;5036295;28;20493;-65
2022/10/07 09:59:24;;;;;;;31.63;12.77;;;19.40;99.90;;;;;;5049118;28;20397;-67
2022/10/07 10:02:00;;;;;;;14.83;11.80;;;19.30;99.90;;;;;;5048629;28;20401;-65
2022/10/07 10:04:35;;;;;;;17.03;12.47;;;19.10;99.90;;;;;;5036406;28;20948;-67
2022/10/07 10:07:16;;;;;;;23.93;13.50;;;18.70;99.90;;;;;;5046399;28;20422;-67
2022/10/07 10:09:48;;;;;;;31.00;12.57;;;18.80;99.90;;;;;;5044021;28;20433;-66
2022/10/07 10:12:16;;;;;;;71.50;18.10;;;19.00;99.90;;;;;;5033526;28;20492;-68
2022/10/07 10:14:45;;;;;;;122.20;25.43;;;19.30;99.90;;;;;;5035715;28;20502;-68
2022/10/07 10:17:35;;;;;;;73.23;18.20;;;19.50;99.90;;;;;;5047721;28;20414;-68
2022/10/07 10:20:19;;;;;;;61.00;18.07;;;19.70;99.90;;;;;;5048249;28;20491;-67
2022/10/07 10:22:45;;;;;;;37.70;14.17;;;19.70;99.90;;;;;;5040317;28;20422;-68
2022/10/07 10:28:01;;;;;;;17.90;13.67;;;19.60;99.90;;;;;;5032850;28;20255;-68
2022/10/07 10:30:29;;;;;;;16.37;13.53;;;19.60;99.90;;;;;;5039741;28;20451;-66
2022/10/07 10:33:32;;;;;;;53.53;17.13;;;19.40;99.90;;;;;;5040552;28;20450;-67
2022/10/07 10:36:11;;;;;;;39.23;16.77;;;19.30;99.90;;;;;;4999253;28;20490;-68
2022/10/07 10:39:03;;;;;;;40.97;15.73;;;19.30;99.90;;;;;;5033159;28;20429;-68
2022/10/07 10:41:49;;;;;;;42.90;13.23;;;19.40;99.90;;;;;;5047208;28;20772;-68
2022/10/07 10:44:37;;;;;;;33.90;15.37;;;19.30;99.90;;;;;;5034829;28;20543;-68
2022/10/07 10:47:27;;;;;;;21.50;13.70;;;19.30;99.90;;;;;;5027587;28;20406;-67
2022/10/07 10:52:56;;;;;;;22.47;13.27;;;19.20;99.90;;;;;;5046079;28;20445;-70
2022/10/07 10:55:35;;;;;;;50.63;17.33;;;19.10;99.90;;;;;;5050646;28;20429;-70
2022/10/07 10:58:26;;;;;;;61.03;18.67;;;19.10;99.90;;;;;;5059764;28;20916;-71
2022/10/07 11:01:10;;;;;;;40.30;16.10;;;19.10;99.90;;;;;;5059126;28;20417;-71
2022/10/07 11:04:30;;;;;;;65.83;18.93;;;19.00;99.90;;;;;;5031819;28;20414;-71
2022/10/07 11:07:06;;;;;;;109.90;23.07;;;19.00;99.90;;;;;;5020095;28;20421;-71
2022/10/07 11:10:11;;;;;;;52.13;18.10;;;18.90;99.90;;;;;;5047391;28;20507;-71
2022/10/07 11:12:41;;;;;;;33.10;15.87;;;19.00;99.90;;;;;;5006409;28;20552;-71
2022/10/07 11:15:20;;;;;;;29.57;14.50;;;18.90;99.90;;;;;;5034125;28;20441;-71
2022/10/07 11:17:48;;;;;;;30.97;16.37;;;19.00;1.00;;;;;;5035999;28;20412;-72
2022/10/07 11:20:35;;;;;;;23.17;16.80;;;18.70;1.00;;;;;;5010479;28;20442;-71
2022/10/07 11:23:27;;;;;;;16.87;14.60;;;18.50;1.00;;;;;;5028031;28;20781;-70
2022/10/07 11:25:58;;;;;;;31.80;16.70;;;18.50;1.00;;;;;;5026798;28;20441;-70
2022/10/07 11:28:29;;;;;;;53.27;18.03;;;18.50;1.00;;;;;;5040692;28;20417;-71
2022/10/07 11:31:10;;;;;;;58.50;20.43;;;18.50;1.00;;;;;;5031327;28;20465;-71
2022/10/07 11:34:10;;;;;;;42.13;18.50;;;18.60;1.00;;;;;;5038432;28;20515;-70
2022/10/07 11:37:01;;;;;;;34.17;17.13;;;18.60;1.00;;;;;;5036744;28;20504;-72
2022/10/07 11:39:28;;;;;;;34.60;18.30;;;18.60;1.00;;;;;;5011754;28;20418;-71
2022/10/07 11:41:53;;;;;;;28.47;17.87;;;18.50;1.00;;;;;;5022155;28;20482;-71
2022/10/07 11:44:28;;;;;;;20.03;16.80;;;18.60;1.00;;;;;;5038874;28;21052;-71
2022/10/07 11:46:57;;;;;;;27.60;17.83;;;18.50;1.00;;;;;;5032306;28;20175;-71
2022/10/07 11:49:53;;;;;;;22.67;16.40;;;18.50;1.00;;;;;;5039676;28;20434;-69
2022/10/07 11:52:31;;;;;;;30.20;17.23;;;18.60;1.00;;;;;;5030095;28;20477;-69
2022/10/07 11:55:06;;;;;;;17.93;15.23;;;18.50;1.00;;;;;;5038416;28;20445;-69
2022/10/07 11:57:34;;;;;;;17.20;15.17;;;18.50;1.00;;;;;;5039092;28;20410;-68
2022/10/07 12:00:21;;;;;;;32.77;17.07;;;18.50;1.00;;;;;;5033932;28;20434;-70
2022/10/07 12:02:48;;;;;;;26.43;18.17;;;18.50;1.00;;;;;;5039807;28;21246;-69
2022/10/07 12:05:35;;;;;;;20.67;15.87;;;18.50;1.00;;;;;;5030518;28;21030;-70
2022/10/07 12:08:31;;;;;;;20.60;16.63;;;18.50;1.00;;;;;;5039505;28;20418;-70
2022/10/07 12:11:15;;;;;;;28.63;18.10;;;18.30;1.00;;;;;;5028891;28;20524;-69
2022/10/07 12:13:52;;;;;;;36.97;16.93;;;18.20;1.00;;;;;;5026619;28;20501;-70
2022/10/07 12:16:30;;;;;;;26.83;17.80;;;18.20;1.00;;;;;;5031243;28;20491;-70
2022/10/07 12:19:07;;;;;;;39.87;17.13;;;18.10;1.00;;;;;;5033591;28;20406;-72
2022/10/07 12:22:04;;;;;;;98.87;24.43;;;18.10;1.00;;;;;;5030830;28;20906;-72
2022/10/07 12:24:35;;;;;;;63.20;19.20;;;18.20;1.00;;;;;;5029262;28;20460;-72
2022/10/07 12:27:22;;;;;;;19.23;14.20;;;18.10;1.00;;;;;;5037916;28;20410;-70
2022/10/07 12:29:59;;;;;;;20.80;14.33;;;18.10;1.00;;;;;;5037097;28;20447;-72
2022/10/07 12:32:55;;;;;;;25.93;13.43;;;18.10;1.00;;;;;;5010828;28;20899;-70
2022/10/07 12:35:33;;;;;;;26.53;15.30;;;18.10;1.00;;;;;;5027473;28;20432;-69
2022/10/07 12:38:03;;;;;;;19.33;13.80;;;18.20;1.00;;;;;;5015173;28;20414;-70
2022/10/07 12:40:30;;;;;;;16.10;13.43;;;18.00;1.00;;;;;;5011727;28;20533;-70
2022/10/07 12:43:09;;;;;;;24.43;15.27;;;18.00;1.00;;;;;;5030875;28;20438;-67
2022/10/07 12:45:39;;;;;;;111.57;22.37;;;17.90;1.00;;;;;;5039472;28;20515;-69
2022/10/07 12:48:14;;;;;;;69.80;18.80;;;17.90;1.00;;;;;;5033095;28;20752;-69
2022/10/07 12:50:41;;;;;;;17.47;13.67;;;18.00;1.00;;;;;;5029873;28;20839;-70
2022/10/07 12:53:10;;;;;;;17.13;13.17;;;17.90;97.80;;;;;;5031057;28;20950;-70
2022/10/07 12:55:40;;;;;;;40.30;17.10;;;17.70;99.90;;;;;;5034676;28;20425;-67
2022/10/07 13:02:02;;;;;;;20.13;13.50;;;17.70;99.90;;;;;;5021054;28;20461;-72
2022/10/07 13:04:51;;;;;;;75.73;19.87;;;17.70;99.90;;;;;;5028118;28;20445;-70
2022/10/07 13:07:34;;;;;;;62.80;18.90;;;17.70;99.90;;;;;;5033341;28;20496;-68
2022/10/07 13:10:11;;;;;;;27.63;16.33;;;17.70;99.90;;;;;;5038974;28;20402;-69
2022/10/07 13:12:51;;;;;;;28.53;15.20;;;17.70;99.90;;;;;;5013073;28;20502;-68
2022/10/07 13:15:41;;;;;;;24.70;15.93;;;17.80;99.90;;;;;;5005142;28;20743;-70
2022/10/07 13:18:19;;;;;;;26.93;14.47;;;17.70;99.90;;;;;;5030831;28;20759;-69
2022/10/07 13:21:06;;;;;;;77.20;18.63;;;17.80;99.90;;;;;;5028682;28;20454;-68